createdAt,value
2019-06-10T00:00:24.236Z,4.30
2019-06-10T00:01:31.491Z,11.93
2019-06-10T00:02:36.786Z,4.55
2019-06-10T00:03:42.380Z,4.15
2019-06-10T00:04:47.764Z,6.87
2019-06-10T00:05:53.261Z,3.50
2019-06-10T00:07:00.985Z,3.42
2019-06-10T00:08:07.005Z,3.20
2019-06-10T00:09:12.429Z,4.72
2019-06-10T00:10:18.546Z,3.50
2019-06-10T00:11:23.736Z,3.58
2019-06-10T00:12:31.481Z,7.17
2019-06-10T00:13:35.929Z,5.03
2019-06-10T00:14:41.957Z,6.10
2019-06-10T00:15:47.226Z,4.72
2019-06-10T00:16:52.701Z,4.37
2019-06-10T00:18:22.263Z,4.58
2019-06-10T00:19:06.821Z,3.50
2019-06-10T00:20:12.039Z,2.98
2019-06-10T00:21:17.345Z,3.95
2019-06-10T00:22:22.579Z,9.28
2019-06-10T00:23:27.929Z,4.72
2019-06-10T00:24:33.018Z,8.48
2019-06-10T00:25:40.581Z,5.33
2019-06-10T00:26:45.338Z,5.15
2019-06-10T00:27:51.173Z,3.37
2019-06-10T00:28:57.922Z,4.80
2019-06-10T00:30:06.088Z,5.83
2019-06-10T00:31:11.542Z,3.42
2019-06-10T00:32:17.146Z,3.05
2019-06-10T00:33:23.837Z,5.45
2019-06-10T00:34:31.160Z,7.10
2019-06-10T00:35:35.897Z,4.65
2019-06-10T00:36:41.485Z,5.50
2019-06-10T00:37:46.855Z,3.87
2019-06-10T00:38:52.216Z,5.58
2019-06-10T00:39:57.398Z,7.65
2019-06-10T00:41:05.642Z,7.87
2019-06-10T00:42:14.906Z,5.37
2019-06-10T00:43:17.771Z,4.42
2019-06-10T00:44:22.975Z,3.95
2019-06-10T00:45:28.303Z,7.97
2019-06-10T00:46:33.386Z,6.80
2019-06-10T00:47:41.290Z,6.05
2019-06-10T00:48:45.704Z,5.58
2019-06-10T00:49:51.544Z,3.12
2019-06-10T00:50:56.740Z,13.40
2019-06-10T00:52:03.983Z,4.25
2019-06-10T00:53:11.875Z,2.58
2019-06-10T00:54:16.197Z,3.85
2019-06-10T00:55:21.332Z,2.90
2019-06-10T00:56:26.630Z,5.70
2019-06-10T00:57:31.725Z,7.35
2019-06-10T00:58:37.049Z,4.00
2019-06-10T00:59:42.143Z,3.80
2019-06-10T01:00:47.397Z,3.02
2019-06-10T01:01:52.758Z,3.15
2019-06-10T01:03:00.680Z,4.30
2019-06-10T01:04:06.900Z,4.42
2019-06-10T01:05:14.956Z,3.83
2019-06-10T01:06:21.365Z,4.08
2019-06-10T01:07:26.165Z,2.77
2019-06-10T01:08:31.688Z,5.30
2019-06-10T01:09:37.077Z,3.65
2019-06-10T01:10:44.205Z,8.13
2019-06-10T01:11:51.667Z,2.45
2019-06-10T01:12:56.287Z,7.22
2019-06-10T01:14:01.624Z,3.62
2019-06-10T01:15:07.525Z,3.42
2019-06-10T01:16:15.402Z,8.80
2019-06-10T01:17:21.300Z,6.12
2019-06-10T01:18:35.738Z,2.58
2019-06-10T01:19:33.818Z,5.97
2019-06-10T01:20:41.328Z,4.28
2019-06-10T01:21:46.046Z,5.40
2019-06-10T01:22:51.823Z,2.83
2019-06-10T01:23:57.030Z,3.47
2019-06-10T01:25:02.763Z,15.75
2019-06-10T01:26:07.884Z,14.70
2019-06-10T01:27:14.993Z,5.75
2019-06-10T01:28:22.094Z,4.05
2019-06-10T01:29:27.259Z,6.60
2019-06-10T01:30:32.613Z,7.08
2019-06-10T01:31:38.049Z,2.42
2019-06-10T01:32:43.176Z,17.73
2019-06-10T01:33:51.172Z,6.67
2019-06-10T01:34:55.541Z,2.92
2019-06-10T01:36:00.968Z,6.65
2019-06-10T01:37:06.784Z,3.40
2019-06-10T01:38:13.508Z,7.00
2019-06-10T01:39:18.939Z,3.22
2019-06-10T01:40:24.277Z,5.45
2019-06-10T01:41:30.622Z,4.87
2019-06-10T01:42:36.249Z,3.15
2019-06-10T01:43:42.269Z,3.50
2019-06-10T01:44:47.906Z,3.00
2019-06-10T01:45:53.038Z,4.15
2019-06-10T01:47:00.845Z,3.65
2019-06-10T01:48:05.250Z,4.42
2019-06-10T01:49:12.059Z,2.95
2019-06-10T01:50:19.489Z,2.80
2019-06-10T01:51:24.895Z,3.80
2019-06-10T01:52:31.680Z,3.85
2019-06-10T01:53:36.949Z,6.72
2019-06-10T01:54:42.189Z,5.75
2019-06-10T01:55:47.715Z,5.40
2019-06-10T01:56:53.068Z,3.22
2019-06-10T01:58:00.740Z,5.40
2019-06-10T01:59:05.610Z,3.10
2019-06-10T02:00:19.118Z,3.05
2019-06-10T02:01:41.304Z,2.47
2019-06-10T02:02:46.917Z,5.12
2019-06-10T02:03:52.261Z,3.20
2019-06-10T02:04:57.901Z,4.55
2019-06-10T02:06:03.342Z,5.83
2019-06-10T02:07:11.459Z,3.80
2019-06-10T02:08:16.575Z,4.80
2019-06-10T02:09:23.305Z,3.10
2019-06-10T02:10:30.969Z,2.80
2019-06-10T02:11:36.693Z,5.35
2019-06-10T02:12:41.902Z,3.52
2019-06-10T02:13:47.177Z,3.70
2019-06-10T02:14:52.910Z,3.45
2019-06-10T02:16:00.981Z,3.25
2019-06-10T02:17:05.447Z,4.25
2019-06-10T02:18:13.511Z,4.53
2019-06-10T02:19:18.699Z,7.92
2019-06-10T02:20:24.091Z,3.37
2019-06-10T02:21:31.141Z,4.67
2019-06-10T02:22:36.999Z,6.85
2019-06-10T02:23:42.125Z,2.90
2019-06-10T02:24:47.408Z,5.75
2019-06-10T02:25:52.850Z,6.78
2019-06-10T02:26:58.179Z,4.45
2019-06-10T02:28:03.810Z,3.37
2019-06-10T02:29:11.629Z,3.20
2019-06-10T02:30:28.437Z,5.10
2019-06-10T02:31:30.474Z,4.87
2019-06-10T02:32:36.203Z,3.37
2019-06-10T02:33:37.398Z,4.28
2019-06-10T02:34:53.574Z,4.12
2019-06-10T02:35:53.573Z,6.08
2019-06-10T02:36:57.589Z,3.70
2019-06-10T02:38:03.655Z,3.50
2019-06-10T02:39:09.352Z,4.08
2019-06-10T02:40:19.282Z,10.98
2019-06-10T02:41:31.653Z,5.45
2019-06-10T02:42:36.626Z,3.95
2019-06-10T02:43:44.028Z,3.58
2019-06-10T02:44:48.933Z,3.80
2019-06-10T02:45:54.158Z,3.62
2019-06-10T02:47:03.156Z,6.33
2019-06-10T02:48:06.788Z,4.03
2019-06-10T02:49:23.297Z,5.35
2019-06-10T02:50:31.506Z,3.72
2019-06-10T02:51:31.432Z,5.80
2019-06-10T02:52:38.427Z,3.52
2019-06-10T02:53:43.815Z,5.47
2019-06-10T02:54:53.170Z,7.28
2019-06-10T02:55:56.943Z,3.90
2019-06-10T02:57:04.467Z,5.15
2019-06-10T02:58:13.614Z,10.20
2019-06-10T02:59:18.229Z,4.12
2019-06-10T03:00:36.925Z,5.30
2019-06-10T03:01:37.113Z,4.50
2019-06-10T03:02:38.388Z,4.20
2019-06-10T03:03:49.141Z,5.03
2019-06-10T03:04:53.495Z,5.62
2019-06-10T03:05:57.889Z,4.90
2019-06-10T03:07:03.511Z,5.35
2019-06-10T03:08:09.117Z,4.83
2019-06-10T03:09:16.432Z,6.25
2019-06-10T03:10:29.599Z,4.90
2019-06-10T03:11:33.499Z,6.15
2019-06-10T03:12:36.039Z,6.20
2019-06-10T03:13:42.618Z,4.00
2019-06-10T03:14:47.794Z,4.87
2019-06-10T03:15:58.980Z,5.20
2019-06-10T03:17:07.655Z,5.17
2019-06-10T03:18:12.992Z,6.55
2019-06-10T03:19:37.046Z,6.33
2019-06-10T03:20:25.957Z,7.35
2019-06-10T03:21:32.349Z,6.10
2019-06-10T03:22:38.274Z,9.08
2019-06-10T03:23:43.364Z,10.32
2019-06-10T03:24:48.684Z,5.00
2019-06-10T03:26:03.691Z,9.65
2019-06-10T03:27:08.541Z,10.48
2019-06-10T03:28:13.910Z,7.10
2019-06-10T03:29:20.536Z,7.67
2019-06-10T03:30:44.218Z,5.40
2019-06-10T03:31:41.307Z,6.85
2019-06-10T03:32:46.750Z,10.93
2019-06-10T03:33:48.419Z,11.97
2019-06-10T03:34:54.933Z,7.00
2019-06-10T03:36:02.963Z,6.65
2019-06-10T03:37:07.339Z,9.43
2019-06-10T03:38:12.623Z,11.78
2019-06-10T03:39:18.634Z,9.68
2019-06-10T03:40:25.973Z,7.50
2019-06-10T03:41:32.279Z,7.55
2019-06-10T03:42:37.822Z,6.65
2019-06-10T03:43:43.144Z,7.40
2019-06-10T03:44:48.412Z,7.95
2019-06-10T03:45:53.604Z,7.92
2019-06-10T03:46:59.745Z,8.35
2019-06-10T03:48:05.029Z,7.20
2019-06-10T03:49:12.474Z,9.95
2019-06-10T03:50:18.949Z,7.83
2019-06-10T03:51:27.370Z,12.45
2019-06-10T03:52:32.431Z,13.85
2019-06-10T03:53:37.870Z,10.68
2019-06-10T03:54:43.490Z,13.10
2019-06-10T03:55:48.912Z,12.55
2019-06-10T03:56:54.267Z,12.30
2019-06-10T03:58:02.175Z,14.23
2019-06-10T03:59:07.052Z,14.20
2019-06-10T04:00:14.062Z,15.20
2019-06-10T04:01:19.499Z,13.68
2019-06-10T04:02:25.570Z,14.55
2019-06-10T04:03:33.815Z,13.62
2019-06-10T04:04:38.904Z,16.52
2019-06-10T04:05:44.250Z,13.90
2019-06-10T04:06:52.922Z,16.95
2019-06-10T04:07:56.554Z,17.90
2019-06-10T04:09:02.801Z,17.32
2019-06-10T04:10:08.546Z,22.75
2019-06-10T04:11:14.131Z,16.12
2019-06-10T04:12:19.532Z,17.65
2019-06-10T04:13:25.842Z,16.40
2019-06-10T04:14:32.824Z,13.58
2019-06-10T04:15:38.251Z,13.15
2019-06-10T04:16:43.506Z,12.03
2019-06-10T04:17:49.078Z,19.42
2019-06-10T04:18:54.181Z,14.78
2019-06-10T04:20:09.336Z,12.90
2019-06-10T04:21:06.565Z,13.75
2019-06-10T04:22:13.030Z,15.63
2019-06-10T04:23:23.833Z,16.12
2019-06-10T04:24:28.622Z,24.98
2019-06-10T04:25:33.790Z,16.55
2019-06-10T04:26:39.193Z,19.75
2019-06-10T04:27:45.271Z,18.30
2019-06-10T04:28:52.864Z,16.27
2019-06-10T04:29:58.049Z,17.77
2019-06-10T04:31:03.346Z,19.42
2019-06-10T04:32:08.715Z,17.45
2019-06-10T04:33:14.045Z,18.10
2019-06-10T04:34:20.396Z,16.27
2019-06-10T04:35:27.950Z,20.30
2019-06-10T04:36:33.539Z,17.98
2019-06-10T04:37:38.983Z,20.10
2019-06-10T04:38:44.442Z,19.87
2019-06-10T04:39:49.761Z,20.23
2019-06-10T04:40:55.129Z,18.45
2019-06-10T04:42:02.414Z,24.72
2019-06-10T04:43:07.453Z,27.48
2019-06-10T04:44:13.295Z,28.92
2019-06-10T04:45:19.045Z,36.90
2019-06-10T04:46:26.421Z,33.60
2019-06-10T04:47:33.317Z,29.40
2019-06-10T04:48:39.295Z,30.95
2019-06-10T04:49:44.655Z,28.67
2019-06-10T04:50:53.169Z,27.25
2019-06-10T04:51:57.440Z,28.05
2019-06-10T04:53:03.141Z,32.93
2019-06-10T04:54:08.260Z,30.48
2019-06-10T04:55:13.803Z,27.00
2019-06-10T04:56:19.701Z,29.42
2019-06-10T04:57:26.563Z,28.95
2019-06-10T04:58:33.472Z,26.80
2019-06-10T04:59:39.236Z,25.70
2019-06-10T05:00:44.708Z,21.05
2019-06-10T05:01:49.999Z,25.48
2019-06-10T05:02:55.103Z,24.63
2019-06-10T05:04:00.425Z,21.80
2019-06-10T05:05:07.477Z,17.65
2019-06-10T05:06:12.849Z,21.77
2019-06-10T05:07:18.996Z,16.30
2019-06-10T05:08:26.597Z,19.10
2019-06-10T05:09:33.529Z,15.70
2019-06-10T05:10:38.354Z,14.23
2019-06-10T05:11:43.592Z,15.15
2019-06-10T05:12:48.890Z,12.53
2019-06-10T05:13:54.264Z,12.13
2019-06-10T05:14:59.571Z,12.95
2019-06-10T05:16:04.768Z,10.68
2019-06-10T05:17:12.606Z,12.18
2019-06-10T05:18:17.127Z,14.25
2019-06-10T05:19:24.697Z,10.55
2019-06-10T05:20:50.368Z,10.95
2019-06-10T05:21:36.536Z,11.03
2019-06-10T05:22:42.375Z,9.18
2019-06-10T05:23:48.095Z,10.58
2019-06-10T05:24:53.294Z,14.23
2019-06-10T05:25:58.814Z,7.90
2019-06-10T05:27:04.255Z,11.05
2019-06-10T05:28:12.146Z,11.00
2019-06-10T05:29:16.984Z,8.55
2019-06-10T05:30:26.004Z,9.58
2019-06-10T05:31:31.018Z,10.43
2019-06-10T05:32:36.641Z,13.25
2019-06-10T05:33:42.602Z,7.53
2019-06-10T05:34:48.113Z,8.93
2019-06-10T05:35:53.327Z,10.95
2019-06-10T05:36:58.875Z,9.45
2019-06-10T05:38:04.051Z,10.28
2019-06-10T05:39:12.032Z,9.00
2019-06-10T05:40:16.572Z,6.75
2019-06-10T05:41:24.879Z,9.33
2019-06-10T05:42:29.381Z,8.28
2019-06-10T05:43:36.239Z,5.62
2019-06-10T05:44:43.088Z,5.50
2019-06-10T05:45:48.458Z,6.45
2019-06-10T05:46:53.590Z,6.40
2019-06-10T05:47:58.946Z,10.20
2019-06-10T05:49:04.109Z,6.90
2019-06-10T05:50:09.644Z,5.87
2019-06-10T05:51:15.116Z,7.55
2019-06-10T05:52:22.978Z,6.65
2019-06-10T05:53:29.176Z,5.05
2019-06-10T05:54:35.481Z,5.30
2019-06-10T05:55:42.720Z,5.80
2019-06-10T05:56:47.699Z,8.40
2019-06-10T05:57:53.310Z,6.28
2019-06-10T05:59:01.512Z,4.92
2019-06-10T06:00:14.001Z,9.23
2019-06-10T06:01:14.592Z,5.33
2019-06-10T06:02:22.132Z,5.85
2019-06-10T06:03:27.790Z,6.47
2019-06-10T06:04:34.709Z,12.07
2019-06-10T06:05:39.957Z,4.85
2019-06-10T06:06:45.270Z,4.95
2019-06-10T06:08:02.307Z,7.67
2019-06-10T06:08:57.575Z,6.95
2019-06-10T06:10:03.228Z,5.67
2019-06-10T06:11:08.647Z,6.00
2019-06-10T06:12:14.393Z,6.17
2019-06-10T06:13:19.848Z,4.67
2019-06-10T06:14:25.521Z,6.85
2019-06-10T06:15:33.021Z,9.58
2019-06-10T06:16:38.340Z,8.30
2019-06-10T06:17:43.554Z,6.80
2019-06-10T06:18:49.105Z,9.80
2019-06-10T06:19:54.197Z,6.25
2019-06-10T06:21:19.067Z,5.65
2019-06-10T06:22:06.755Z,5.30
2019-06-10T06:23:12.368Z,7.00
2019-06-10T06:24:17.806Z,5.22
2019-06-10T06:25:24.145Z,8.98
2019-06-10T06:26:33.401Z,8.40
2019-06-10T06:27:37.079Z,6.65
2019-06-10T06:28:43.380Z,6.80
2019-06-10T06:29:48.784Z,14.73
2019-06-10T06:30:53.945Z,6.53
2019-06-10T06:31:59.907Z,9.85
2019-06-10T06:33:05.916Z,7.97
2019-06-10T06:34:13.794Z,7.12
2019-06-10T06:35:18.390Z,8.58
2019-06-10T06:36:23.674Z,7.05
2019-06-10T06:37:29.072Z,10.58
2019-06-10T06:38:36.631Z,8.30
2019-06-10T06:39:42.908Z,7.15
2019-06-10T06:40:48.594Z,8.93
2019-06-10T06:41:53.847Z,8.00
2019-06-10T06:42:59.312Z,12.33
2019-06-10T06:44:04.964Z,11.00
2019-06-10T06:45:12.171Z,7.12
2019-06-10T06:46:17.799Z,9.15
2019-06-10T06:47:23.125Z,10.38
2019-06-10T06:48:28.342Z,7.00
2019-06-10T06:49:35.481Z,8.00
2019-06-10T06:50:57.262Z,10.72
2019-06-10T06:51:55.300Z,8.83
2019-06-10T06:53:19.824Z,11.18
2019-06-10T06:54:03.302Z,12.53
2019-06-10T06:55:08.997Z,9.85
2019-06-10T06:56:14.429Z,7.40
2019-06-10T06:57:22.236Z,8.68
2019-06-10T06:58:26.914Z,7.65
2019-06-10T06:59:34.231Z,7.28
2019-06-10T07:00:57.898Z,11.30
2019-06-10T07:01:47.088Z,12.28
2019-06-10T07:02:53.008Z,9.58
2019-06-10T07:03:58.190Z,9.98
2019-06-10T07:05:03.615Z,7.90
2019-06-10T07:06:13.193Z,12.18
2019-06-10T07:07:22.220Z,12.90
2019-06-10T07:08:27.924Z,8.85
2019-06-10T07:09:36.190Z,13.83
2019-06-10T07:10:43.644Z,9.20
2019-06-10T07:11:49.981Z,9.38
2019-06-10T07:12:58.528Z,11.90
2019-06-10T07:14:04.648Z,7.83
2019-06-10T07:15:12.181Z,11.93
2019-06-10T07:16:17.599Z,9.70
2019-06-10T07:17:22.911Z,9.50
2019-06-10T07:18:28.206Z,8.55
2019-06-10T07:19:36.310Z,8.73
2019-06-10T07:20:41.650Z,6.50
2019-06-10T07:22:07.437Z,8.50
2019-06-10T07:22:54.742Z,9.68
2019-06-10T07:23:59.903Z,7.33
2019-06-10T07:25:06.722Z,6.50
2019-06-10T07:26:12.721Z,8.18
2019-06-10T07:27:18.218Z,8.05
2019-06-10T07:28:23.645Z,9.80
2019-06-10T07:29:29.209Z,7.28
2019-06-10T07:30:38.844Z,7.58
2019-06-10T07:31:45.961Z,9.60
2019-06-10T07:32:49.247Z,6.35
2019-06-10T07:33:54.714Z,7.03
2019-06-10T07:34:59.841Z,9.43
2019-06-10T07:36:05.191Z,9.70
2019-06-10T07:37:12.929Z,7.58
2019-06-10T07:38:18.553Z,7.33
2019-06-10T07:39:23.668Z,9.03
2019-06-10T07:40:29.034Z,8.10
2019-06-10T07:41:35.635Z,9.13
2019-06-10T07:42:43.703Z,7.87
2019-06-10T07:43:54.395Z,10.37
2019-06-10T07:45:02.413Z,6.55
2019-06-10T07:46:07.157Z,12.03
2019-06-10T07:47:12.900Z,7.03
2019-06-10T07:48:18.124Z,8.78
2019-06-10T07:49:23.980Z,9.90
2019-06-10T07:50:29.389Z,7.33
2019-06-10T07:51:35.866Z,8.30
2019-06-10T07:52:46.078Z,6.47
2019-06-10T07:53:48.556Z,8.03
2019-06-10T07:54:53.678Z,7.47
2019-06-10T07:55:58.974Z,7.07
2019-06-10T07:57:04.256Z,8.07
2019-06-10T07:58:09.673Z,6.35
2019-06-10T07:59:14.877Z,10.83
2019-06-10T08:00:22.760Z,8.30
2019-06-10T08:01:27.971Z,9.03
2019-06-10T08:02:34.058Z,8.23
2019-06-10T08:03:41.803Z,8.73
2019-06-10T08:04:48.013Z,9.95
2019-06-10T08:05:53.233Z,8.15
2019-06-10T08:06:58.575Z,8.23
2019-06-10T08:08:03.779Z,9.57
2019-06-10T08:09:09.423Z,7.73
2019-06-10T08:10:14.713Z,8.10
2019-06-10T08:11:22.646Z,8.80
2019-06-10T08:12:27.167Z,11.93
2019-06-10T08:13:33.064Z,9.40
2019-06-10T08:14:39.461Z,11.00
2019-06-10T08:15:46.187Z,10.40
2019-06-10T08:16:53.112Z,13.00
2019-06-10T08:17:58.617Z,13.13
2019-06-10T08:19:26.117Z,10.07
2019-06-10T08:20:13.439Z,11.90
2019-06-10T08:21:18.247Z,10.30
2019-06-10T08:22:35.124Z,13.63
2019-06-10T08:23:32.907Z,12.00
2019-06-10T08:24:37.369Z,14.80
2019-06-10T08:25:46.773Z,15.50
2019-06-10T08:26:49.907Z,13.80
2019-06-10T08:27:55.092Z,12.30
2019-06-10T08:29:04.174Z,9.80
2019-06-10T08:30:18.521Z,13.50
2019-06-10T08:31:16.598Z,11.67
2019-06-10T08:32:24.249Z,9.87
2019-06-10T08:33:28.765Z,13.43
2019-06-10T08:34:33.663Z,10.37
2019-06-10T08:35:48.343Z,13.20
2019-06-10T08:36:50.392Z,16.73
2019-06-10T08:37:53.770Z,11.77
2019-06-10T08:38:58.772Z,13.43
2019-06-10T08:40:05.104Z,8.97
2019-06-10T08:41:12.255Z,11.17
2019-06-10T08:42:18.262Z,13.37
2019-06-10T08:43:23.927Z,10.97
2019-06-10T08:44:29.640Z,10.73
2019-06-10T08:45:35.002Z,10.27
2019-06-10T08:46:41.578Z,12.67
2019-06-10T08:47:49.093Z,13.00
2019-06-10T08:48:55.207Z,10.77
2019-06-10T08:50:02.541Z,11.47
2019-06-10T08:51:07.895Z,10.47
2019-06-10T08:52:13.099Z,12.53
2019-06-10T08:53:22.515Z,19.17
2019-06-10T08:54:27.178Z,11.30
2019-06-10T08:55:33.597Z,12.93
2019-06-10T08:56:40.114Z,16.13
2019-06-10T08:57:48.835Z,12.90
2019-06-10T08:58:54.030Z,11.70
2019-06-10T09:00:04.052Z,12.17
2019-06-10T09:01:06.965Z,13.73
2019-06-10T09:02:12.587Z,11.80
2019-06-10T09:03:17.876Z,16.63
2019-06-10T09:04:24.396Z,12.80
2019-06-10T09:05:29.645Z,15.63
2019-06-10T09:06:35.304Z,13.47
2019-06-10T09:07:45.470Z,12.97
2019-06-10T09:08:51.287Z,16.80
2019-06-10T09:09:55.222Z,11.57
2019-06-10T09:11:02.314Z,13.43
2019-06-10T09:12:07.839Z,10.63
2019-06-10T09:13:13.512Z,15.60
2019-06-10T09:14:18.416Z,10.63
2019-06-10T09:15:24.197Z,11.90
2019-06-10T09:16:29.415Z,20.63
2019-06-10T09:17:34.899Z,10.67
2019-06-10T09:18:44.109Z,10.57
2019-06-10T09:19:49.173Z,11.10
2019-06-10T09:20:56.152Z,14.70
2019-06-10T09:22:03.212Z,12.53
2019-06-10T09:23:21.637Z,12.33
2019-06-10T09:24:15.387Z,13.70
2019-06-10T09:25:22.671Z,10.50
2019-06-10T09:26:28.289Z,10.30
2019-06-10T09:27:33.478Z,13.23
2019-06-10T09:28:40.445Z,13.60
2019-06-10T09:29:49.788Z,12.83
2019-06-10T09:30:58.887Z,17.23
2019-06-10T09:32:02.176Z,13.03
2019-06-10T09:33:07.837Z,11.70
2019-06-10T09:34:13.209Z,11.20
2019-06-10T09:35:19.527Z,11.70
2019-06-10T09:36:24.697Z,17.53
2019-06-10T09:37:32.022Z,12.73
2019-06-10T09:38:37.670Z,9.93
2019-06-10T09:39:49.844Z,12.77
2019-06-10T09:40:59.220Z,14.23
2019-06-10T09:42:02.673Z,12.30
2019-06-10T09:43:05.633Z,9.47
2019-06-10T09:44:12.944Z,12.17
2019-06-10T09:45:22.243Z,13.07
2019-06-10T09:46:33.129Z,11.23
2019-06-10T09:47:44.494Z,12.63
2019-06-10T09:48:50.286Z,14.07
2019-06-10T09:49:55.658Z,12.77
2019-06-10T09:51:02.468Z,12.87
2019-06-10T09:52:07.637Z,9.57
2019-06-10T09:53:30.209Z,9.27
2019-06-10T09:54:26.495Z,13.23
2019-06-10T09:55:33.719Z,12.63
2019-06-10T09:56:38.805Z,8.47
2019-06-10T09:57:47.215Z,10.40
2019-06-10T09:58:55.099Z,12.40
2019-06-10T09:59:59.178Z,15.33
2019-06-10T10:01:05.656Z,11.50
2019-06-10T10:02:12.594Z,12.63
2019-06-10T10:03:17.887Z,14.27
2019-06-10T10:04:23.762Z,13.03
2019-06-10T10:05:28.726Z,10.03
2019-06-10T10:06:34.262Z,8.90
2019-06-10T10:07:39.450Z,12.60
2019-06-10T10:08:49.294Z,8.57
2019-06-10T10:09:57.006Z,12.23
2019-06-10T10:11:00.879Z,11.53
2019-06-10T10:12:05.898Z,12.57
2019-06-10T10:13:13.088Z,9.93
2019-06-10T10:14:18.131Z,15.37
2019-06-10T10:15:30.550Z,10.63
2019-06-10T10:16:33.685Z,9.93
2019-06-10T10:17:37.674Z,14.13
2019-06-10T10:18:48.354Z,8.23
2019-06-10T10:19:53.830Z,11.73
2019-06-10T10:21:00.073Z,10.93
2019-06-10T10:22:03.964Z,9.83
2019-06-10T10:23:09.800Z,13.60
2019-06-10T10:24:15.588Z,11.17
2019-06-10T10:25:23.398Z,18.40
2019-06-10T10:26:28.266Z,11.50
2019-06-10T10:27:33.405Z,9.60
2019-06-10T10:28:39.298Z,8.10
2019-06-10T10:29:47.177Z,13.03
2019-06-10T10:30:57.195Z,9.80
2019-06-10T10:31:58.794Z,9.97
2019-06-10T10:33:04.405Z,9.90
2019-06-10T10:34:09.532Z,11.97
2019-06-10T10:35:15.474Z,13.97
2019-06-10T10:36:22.592Z,10.40
2019-06-10T10:37:28.449Z,14.33
2019-06-10T10:38:34.907Z,14.77
2019-06-10T10:39:40.787Z,12.07
2019-06-10T10:40:49.012Z,9.37
2019-06-10T10:41:56.628Z,13.20
2019-06-10T10:43:19.813Z,12.00
2019-06-10T10:44:07.609Z,11.30
2019-06-10T10:45:13.788Z,9.90
2019-06-10T10:46:22.914Z,10.10
2019-06-10T10:47:27.653Z,11.10
2019-06-10T10:48:34.295Z,15.37
2019-06-10T10:49:39.163Z,10.10
2019-06-10T10:50:45.612Z,10.70
2019-06-10T10:51:51.216Z,11.73
2019-06-10T10:52:56.684Z,13.27
2019-06-10T10:54:21.161Z,13.17
2019-06-10T10:55:09.571Z,11.20
2019-06-10T10:56:14.720Z,15.03
2019-06-10T10:57:22.589Z,12.33
2019-06-10T10:58:26.840Z,8.70
2019-06-10T10:59:33.269Z,13.97
2019-06-10T11:00:45.338Z,8.60
2019-06-10T11:01:51.622Z,11.90
2019-06-10T11:02:57.370Z,12.73
2019-06-10T11:04:03.923Z,16.07
2019-06-10T11:05:12.685Z,14.93
2019-06-10T11:06:18.315Z,16.97
2019-06-10T11:07:23.793Z,10.20
2019-06-10T11:08:32.383Z,13.60
2019-06-10T11:09:36.748Z,9.53
2019-06-10T11:10:45.330Z,10.03
2019-06-10T11:11:52.224Z,10.27
2019-06-10T11:12:58.043Z,10.70
2019-06-10T11:14:03.586Z,15.53
2019-06-10T11:15:09.943Z,11.97
2019-06-10T11:16:15.083Z,12.50
2019-06-10T11:17:22.696Z,10.90
2019-06-10T11:18:27.220Z,12.93
2019-06-10T11:19:33.045Z,11.07
2019-06-10T11:20:38.147Z,12.33
2019-06-10T11:21:43.786Z,12.20
2019-06-10T11:22:49.619Z,13.77
2019-06-10T11:23:59.902Z,13.57
2019-06-10T11:25:01.933Z,14.90
2019-06-10T11:26:07.662Z,13.13
2019-06-10T11:27:12.860Z,14.70
2019-06-10T11:28:18.687Z,11.80
2019-06-10T11:29:23.606Z,10.73
2019-06-10T11:30:32.242Z,16.33
2019-06-10T11:31:36.567Z,16.57
2019-06-10T11:32:43.224Z,13.00
2019-06-10T11:33:48.726Z,15.00
2019-06-10T11:34:56.926Z,15.43
2019-06-10T11:36:02.915Z,10.50
2019-06-10T11:37:08.345Z,14.87
2019-06-10T11:38:13.325Z,13.33
2019-06-10T11:39:19.015Z,12.53
2019-06-10T11:40:24.053Z,12.00
2019-06-10T11:41:32.280Z,12.70
2019-06-10T11:42:36.706Z,15.17
2019-06-10T11:43:43.203Z,12.40
2019-06-10T11:44:48.444Z,14.00
2019-06-10T11:46:01.186Z,20.03
2019-06-10T11:47:03.220Z,12.40
2019-06-10T11:48:10.297Z,14.77
2019-06-10T11:49:15.277Z,8.57
2019-06-10T11:50:23.236Z,12.17
2019-06-10T11:51:27.963Z,10.23
2019-06-10T11:52:33.863Z,13.53
2019-06-10T11:53:38.798Z,9.17
2019-06-10T11:54:55.805Z,11.17
2019-06-10T11:55:51.715Z,16.20
2019-06-10T11:56:58.603Z,11.73
2019-06-10T11:58:04.008Z,10.63
2019-06-10T11:59:10.105Z,12.90
2019-06-10T12:00:17.504Z,11.00
2019-06-10T12:01:23.104Z,12.10
2019-06-10T12:02:28.121Z,10.67
2019-06-10T12:03:33.756Z,11.33
2019-06-10T12:04:39.052Z,14.17
2019-06-10T12:05:44.897Z,11.37
2019-06-10T12:06:50.608Z,14.70
2019-06-10T12:07:59.701Z,11.93
2019-06-10T12:09:03.703Z,14.37
2019-06-10T12:10:12.660Z,11.77
2019-06-10T12:11:16.761Z,12.63
2019-06-10T12:12:22.559Z,16.43
2019-06-10T12:13:27.499Z,13.53
2019-06-10T12:14:33.975Z,14.60
2019-06-10T12:16:19.940Z,9.53
2019-06-10T12:18:00.836Z,14.07
2019-06-10T12:19:03.400Z,12.10
2019-06-10T12:20:09.033Z,9.50
2019-06-10T12:21:14.570Z,7.00
2019-06-10T12:22:19.631Z,11.50
2019-06-10T12:23:25.359Z,12.87
2019-06-10T12:24:33.135Z,11.57
2019-06-10T12:25:39.657Z,11.70
2019-06-10T12:26:44.458Z,7.30
2019-06-10T12:27:51.588Z,11.50
2019-06-10T12:28:59.366Z,7.67
2019-06-10T12:30:05.132Z,7.20
2019-06-10T12:31:13.062Z,10.50
2019-06-10T12:32:17.475Z,12.33
2019-06-10T12:33:25.360Z,9.00
2019-06-10T12:34:33.005Z,5.70
2019-06-10T12:35:36.884Z,5.90
2019-06-10T12:36:42.487Z,8.20
2019-06-10T12:37:47.782Z,7.10
2019-06-10T12:38:58.287Z,9.57
2019-06-10T12:40:02.153Z,10.47
2019-06-10T12:41:10.323Z,9.03
2019-06-10T12:42:14.543Z,6.90
2019-06-10T12:43:20.255Z,7.40
2019-06-10T12:44:25.278Z,6.60
2019-06-10T12:45:32.640Z,11.23
2019-06-10T12:46:38.017Z,7.50
2019-06-10T12:47:43.655Z,9.63
2019-06-10T12:48:48.714Z,10.73
2019-06-10T12:49:55.808Z,8.70
2019-06-10T12:51:05.744Z,7.20
2019-06-10T12:52:08.484Z,8.57
2019-06-10T12:53:13.481Z,11.90
2019-06-10T12:54:19.087Z,13.43
2019-06-10T12:55:38.498Z,6.90
2019-06-10T12:56:32.792Z,8.43
2019-06-10T12:57:38.043Z,12.37
2019-06-10T12:58:43.826Z,8.93
2019-06-10T12:59:48.834Z,6.33
2019-06-10T13:00:55.556Z,8.50
2019-06-10T13:02:11.409Z,7.77
2019-06-10T13:03:07.965Z,6.37
2019-06-10T13:04:14.036Z,10.07
2019-06-10T13:05:22.653Z,7.70
2019-06-10T13:06:27.127Z,10.20
2019-06-10T13:07:33.672Z,9.87
2019-06-10T13:08:38.998Z,7.20
2019-06-10T13:09:46.021Z,10.03
2019-06-10T13:10:53.355Z,5.53
2019-06-10T13:11:58.249Z,7.90
2019-06-10T13:13:07.102Z,5.90
2019-06-10T13:14:12.833Z,7.20
2019-06-10T13:15:17.707Z,8.60
2019-06-10T13:16:23.750Z,5.63
2019-06-10T13:17:28.676Z,4.80
2019-06-10T13:18:34.549Z,5.30
2019-06-10T13:19:39.471Z,4.57
2019-06-10T13:20:45.395Z,8.60
2019-06-10T13:21:50.297Z,7.60
2019-06-10T13:22:56.215Z,8.53
2019-06-10T13:24:03.665Z,4.40
2019-06-10T13:25:09.008Z,6.90
2019-06-10T13:26:16.635Z,5.57
2019-06-10T13:27:22.730Z,6.70
2019-06-10T13:28:27.932Z,6.27
2019-06-10T13:29:33.825Z,7.47
2019-06-10T13:30:38.879Z,4.70
2019-06-10T13:31:44.447Z,5.53
2019-06-10T13:32:52.549Z,4.87
2019-06-10T13:34:02.660Z,8.70
2019-06-10T13:35:05.649Z,5.07
2019-06-10T13:36:11.363Z,5.90
2019-06-10T13:37:16.415Z,4.03
2019-06-10T13:38:25.353Z,8.10
2019-06-10T13:39:28.543Z,5.23
2019-06-10T13:40:34.355Z,9.80
2019-06-10T13:41:39.646Z,5.53
2019-06-10T13:42:45.167Z,7.10
2019-06-10T13:43:52.515Z,6.23
2019-06-10T13:44:57.802Z,11.50
2019-06-10T13:46:03.265Z,5.73
2019-06-10T13:47:12.596Z,7.33
2019-06-10T13:48:16.670Z,9.43
2019-06-10T13:49:22.773Z,4.93
2019-06-10T13:50:28.887Z,8.07
2019-06-10T13:51:35.640Z,7.50
2019-06-10T13:52:42.576Z,6.43
2019-06-10T13:53:48.423Z,4.33
2019-06-10T13:54:53.923Z,5.30
2019-06-10T13:56:19.942Z,7.00
2019-06-10T13:57:08.435Z,9.93
2019-06-10T13:58:14.661Z,7.57
2019-06-10T13:59:19.967Z,7.10
2019-06-10T14:00:40.685Z,7.03
2019-06-10T14:01:35.055Z,6.87
2019-06-10T14:02:42.962Z,4.90
2019-06-10T14:03:46.762Z,9.50
2019-06-10T14:04:53.310Z,5.33
2019-06-10T14:06:04.966Z,5.13
2019-06-10T14:07:10.213Z,5.23
2019-06-10T14:08:15.382Z,7.10
2019-06-10T14:09:23.117Z,5.60
2019-06-10T14:10:27.796Z,4.40
2019-06-10T14:11:34.050Z,7.10
2019-06-10T14:12:39.471Z,10.07
2019-06-10T14:13:45.510Z,5.80
2019-06-10T14:14:53.155Z,6.00
2019-06-10T14:15:58.165Z,5.43
2019-06-10T14:17:03.931Z,6.20
2019-06-10T14:18:15.002Z,11.27
2019-06-10T14:19:18.114Z,8.53
2019-06-10T14:20:24.377Z,6.40
2019-06-10T14:21:29.192Z,7.47
2019-06-10T14:22:34.964Z,10.63
2019-06-10T14:23:42.336Z,7.37
2019-06-10T14:24:47.654Z,6.60
2019-06-10T14:25:53.542Z,6.60
2019-06-10T14:26:58.999Z,8.03
2019-06-10T14:28:07.641Z,8.30
2019-06-10T14:29:14.236Z,8.30
2019-06-10T14:30:18.469Z,5.67